createdAt,value
2018-07-21T00:01:18.260Z,35.41
2018-07-21T00:03:49.168Z,36.21
2018-07-21T00:06:20.236Z,35.22
2018-07-21T00:08:54.379Z,35.19
2018-07-21T00:11:27.858Z,36.54
2018-07-21T00:13:59.724Z,37.28
2018-07-21T00:16:32.418Z,36.80
2018-07-21T00:19:02.819Z,37.76
2018-07-21T00:21:34.613Z,37.22
2018-07-21T00:24:06.650Z,37.24
2018-07-21T00:26:42.848Z,37.73
2018-07-21T00:29:13.387Z,38.35
2018-07-21T00:31:44.459Z,38.61
2018-07-21T00:34:14.632Z,38.04
2018-07-21T00:36:46.277Z,37.87
2018-07-21T00:39:18.562Z,37.66
2018-07-21T00:41:51.342Z,38.37
2018-07-21T00:44:22.448Z,38.38
2018-07-21T00:46:54.407Z,37.25
2018-07-21T00:49:26.524Z,38.58
2018-07-21T00:51:57.566Z,38.10
2018-07-21T00:54:27.774Z,38.57
2018-07-21T00:56:58.331Z,39.12
2018-07-21T00:59:28.783Z,38.52
2018-07-21T01:01:59.805Z,38.87
2018-07-21T01:04:30.968Z,38.78
2018-07-21T01:07:01.279Z,37.98
2018-07-21T01:09:33.259Z,38.52
2018-07-21T01:12:05.165Z,38.34
2018-07-21T01:14:35.622Z,38.13
2018-07-21T01:17:06.492Z,38.92
2018-07-21T01:19:36.820Z,38.69
2018-07-21T01:22:08.825Z,38.66
2018-07-21T01:24:41.597Z,39.43
2018-07-21T01:27:11.986Z,39.00
2018-07-21T01:29:42.189Z,37.90
2018-07-21T01:32:13.052Z,38.43
2018-07-21T01:34:43.476Z,38.84
2018-07-21T01:37:15.938Z,39.48
2018-07-21T01:39:46.478Z,39.12
2018-07-21T01:42:18.408Z,38.88
2018-07-21T01:44:48.943Z,38.88
2018-07-21T01:47:19.650Z,38.09
2018-07-21T01:49:51.569Z,37.99
2018-07-21T01:52:21.828Z,39.84
2018-07-21T01:54:54.650Z,40.17
2018-07-21T01:57:26.007Z,40.62
2018-07-21T01:59:56.255Z,40.75
2018-07-21T02:02:27.745Z,40.98
2018-07-21T02:04:58.378Z,40.58
2018-07-21T02:07:28.604Z,40.50
2018-07-21T02:09:58.797Z,41.40
2018-07-21T02:12:29.046Z,44.06
2018-07-21T02:14:59.301Z,45.48
2018-07-21T02:17:30.499Z,45.42
2018-07-21T02:20:00.980Z,47.90
2018-07-21T02:22:31.651Z,48.76
2018-07-21T02:25:02.381Z,49.37
2018-07-21T02:27:33.979Z,49.71
2018-07-21T02:30:06.382Z,51.40
2018-07-21T02:32:37.585Z,50.88
2018-07-21T02:35:08.183Z,51.81
2018-07-21T02:37:39.097Z,51.99
2018-07-21T02:40:11.155Z,52.57
2018-07-21T02:42:41.375Z,51.84
2018-07-21T02:45:14.161Z,51.40
2018-07-21T02:47:45.582Z,52.03
2018-07-21T02:50:16.205Z,51.65
2018-07-21T02:52:47.244Z,52.79
2018-07-21T02:55:18.652Z,51.83
2018-07-21T02:57:50.383Z,51.83
2018-07-21T03:00:20.936Z,52.45
2018-07-21T03:02:51.549Z,52.08
2018-07-21T03:05:23.480Z,52.74
2018-07-21T03:07:54.159Z,52.46
2018-07-21T03:10:24.398Z,52.66
2018-07-21T03:13:01.384Z,52.37
2018-07-21T03:15:32.345Z,52.49
2018-07-21T03:18:02.474Z,51.16
2018-07-21T03:20:33.760Z,52.31
2018-07-21T03:23:07.660Z,52.03
2018-07-21T03:25:38.411Z,52.51
2018-07-21T03:28:08.864Z,51.66
2018-07-21T03:30:39.988Z,52.11
2018-07-21T03:33:13.205Z,52.64
2018-07-21T03:35:46.268Z,51.55
2018-07-21T03:38:16.422Z,51.47
2018-07-21T03:40:46.708Z,50.99
2018-07-21T03:43:17.167Z,51.25
2018-07-21T03:45:47.706Z,50.89
2018-07-21T03:48:18.629Z,55.50
2018-07-21T03:50:49.179Z,57.15
2018-07-21T03:53:20.384Z,59.41
2018-07-21T03:55:52.401Z,58.09
2018-07-21T03:58:23.775Z,56.90
2018-07-21T04:00:54.381Z,57.52
2018-07-21T04:03:25.169Z,57.65
2018-07-21T04:05:56.179Z,57.86
2018-07-21T04:08:26.435Z,58.21
2018-07-21T04:10:57.151Z,59.26
2018-07-21T04:13:31.102Z,58.35
2018-07-21T04:16:02.021Z,58.91
2018-07-21T04:18:33.613Z,59.19
2018-07-21T04:21:04.022Z,59.35
2018-07-21T04:23:34.778Z,59.56
2018-07-21T04:26:05.213Z,59.43
2018-07-21T04:28:36.338Z,58.70
2018-07-21T04:31:07.862Z,57.66
2018-07-21T04:33:38.075Z,58.47
2018-07-21T04:36:08.691Z,58.56
2018-07-21T04:38:39.959Z,59.57
2018-07-21T04:41:10.950Z,59.97
2018-07-21T04:43:41.841Z,60.11
2018-07-21T04:46:12.426Z,60.10
2018-07-21T04:48:43.309Z,60.36
2018-07-21T04:51:14.676Z,60.09
2018-07-21T04:53:45.414Z,59.44
2018-07-21T04:56:15.891Z,58.31
2018-07-21T04:58:46.030Z,58.23
2018-07-21T05:01:16.718Z,58.85
2018-07-21T05:03:47.308Z,58.07
2018-07-21T05:06:17.515Z,55.46
2018-07-21T05:08:47.759Z,52.74
2018-07-21T05:11:18.319Z,51.73
2018-07-21T05:13:48.548Z,50.76
2018-07-21T05:16:19.341Z,49.76
2018-07-21T05:18:50.505Z,48.74
2018-07-21T05:21:21.492Z,48.97
2018-07-21T05:23:51.715Z,47.90
2018-07-21T05:26:22.830Z,48.16
2018-07-21T05:28:53.030Z,47.36
2018-07-21T05:31:23.868Z,47.39
2018-07-21T05:33:54.921Z,46.80
2018-07-21T05:36:25.289Z,47.03
2018-07-21T05:38:56.214Z,46.90
2018-07-21T05:41:27.822Z,46.77
2018-07-21T05:44:01.858Z,46.40
2018-07-21T05:46:33.636Z,45.67
2018-07-21T05:49:23.358Z,44.18
2018-07-21T05:51:54.274Z,43.53
2018-07-21T05:54:27.332Z,43.85
2018-07-21T05:57:01.843Z,42.86
2018-07-21T05:59:32.934Z,42.62
2018-07-21T06:02:03.784Z,40.89
2018-07-21T06:04:34.108Z,41.69
2018-07-21T06:07:04.636Z,41.31
2018-07-21T06:09:36.187Z,40.64
2018-07-21T06:12:07.273Z,40.67
2018-07-21T06:14:39.354Z,42.71
2018-07-21T06:17:10.486Z,42.83
2018-07-21T06:19:41.421Z,42.40
2018-07-21T06:22:14.155Z,41.60
2018-07-21T06:24:45.579Z,40.44
2018-07-21T06:27:17.602Z,40.02
2018-07-21T06:29:53.971Z,40.13
2018-07-21T06:32:24.935Z,38.40
2018-07-21T06:34:55.082Z,39.05
2018-07-21T06:37:25.426Z,40.59
2018-07-21T06:39:57.137Z,41.35
2018-07-21T06:42:28.567Z,42.81
2018-07-21T06:44:59.302Z,42.50
2018-07-21T06:47:30.930Z,43.56
2018-07-21T06:50:01.231Z,43.16
2018-07-21T06:52:33.287Z,42.35
2018-07-21T06:55:12.016Z,41.86
2018-07-21T06:57:44.101Z,40.21
2018-07-21T07:00:21.834Z,39.42
2018-07-21T07:02:53.275Z,39.32
2018-07-21T07:05:25.265Z,38.11
2018-07-21T07:07:56.085Z,37.34
2018-07-21T07:10:26.333Z,36.71
2018-07-21T07:12:56.579Z,36.44
2018-07-21T07:15:28.311Z,36.33
2018-07-21T07:21:49.890Z,35.09
2018-07-21T07:24:21.404Z,34.67
2018-07-21T07:26:52.350Z,34.05
2018-07-21T07:29:46.284Z,33.91
2018-07-21T07:35:12.384Z,32.33
2018-07-21T07:37:47.471Z,30.00
2018-07-21T07:40:18.521Z,31.04
2018-07-21T07:42:50.812Z,31.64
2018-07-21T07:45:32.255Z,31.72
2018-07-21T07:48:03.753Z,31.59
2018-07-21T07:50:42.339Z,31.96
2018-07-21T07:53:17.673Z,32.02
2018-07-21T07:55:50.361Z,30.98
2018-07-21T07:58:23.218Z,29.83
2018-07-21T08:00:56.271Z,29.78
2018-07-21T08:03:28.095Z,31.91
2018-07-21T08:06:08.193Z,31.85
2018-07-21T08:08:39.639Z,31.80
2018-07-21T08:11:12.939Z,32.01
2018-07-21T08:13:58.408Z,31.86
2018-07-21T08:16:36.056Z,31.61
2018-07-21T08:19:09.527Z,30.67
2018-07-21T08:21:42.206Z,30.53
2018-07-21T08:24:14.364Z,29.88
2018-07-21T08:26:47.196Z,29.84
2018-07-21T08:29:18.386Z,29.07
2018-07-21T08:31:49.913Z,27.98
2018-07-21T08:34:22.388Z,27.20
2018-07-21T08:36:56.575Z,27.73
2018-07-21T08:39:29.914Z,27.95
2018-07-21T08:42:11.285Z,27.46
2018-07-21T08:44:43.386Z,27.34
2018-07-21T08:47:18.238Z,27.89
2018-07-21T08:49:52.532Z,26.28
2018-07-21T08:52:24.718Z,26.61
2018-07-21T08:54:56.082Z,27.72
2018-07-21T08:57:27.026Z,26.68
2018-07-21T08:59:58.244Z,26.24
2018-07-21T09:02:31.315Z,25.46
2018-07-21T09:05:06.543Z,25.56
2018-07-21T09:07:37.018Z,25.71
2018-07-21T09:10:07.864Z,24.74
2018-07-21T09:12:39.952Z,23.44
2018-07-21T09:15:14.691Z,23.42
2018-07-21T09:17:45.979Z,23.30
2018-07-21T09:27:30.983Z,23.83
2018-07-21T09:30:04.977Z,24.45
2018-07-21T09:32:42.053Z,24.60
2018-07-21T09:35:13.384Z,25.69
2018-07-21T09:37:45.228Z,25.29
2018-07-21T09:40:16.233Z,24.71
2018-07-21T09:42:47.481Z,24.27
2018-07-21T09:45:19.992Z,23.98
2018-07-21T09:47:54.575Z,23.42
2018-07-21T09:50:27.587Z,24.78
2018-07-21T09:55:38.714Z,24.49
2018-07-21T09:58:10.808Z,24.03
2018-07-21T10:00:51.519Z,24.55
2018-07-21T10:03:34.614Z,24.88
2018-07-21T10:06:13.165Z,24.30
2018-07-21T10:08:51.242Z,24.13
2018-07-21T10:11:36.682Z,23.52
2018-07-21T10:14:10.131Z,23.58
2018-07-21T10:16:46.682Z,22.35
2018-07-21T10:19:19.600Z,22.46
2018-07-21T10:21:52.290Z,22.14
2018-07-21T10:24:29.788Z,21.49
2018-07-21T10:27:09.538Z,22.04
2018-07-21T10:29:45.958Z,21.27
2018-07-21T10:32:17.499Z,21.34
2018-07-21T10:34:51.039Z,21.38
2018-07-21T10:37:24.233Z,20.68
2018-07-21T10:39:57.553Z,21.05
2018-07-21T10:42:28.458Z,20.73
2018-07-21T10:45:05.240Z,20.86
2018-07-21T10:47:36.398Z,20.41
2018-07-21T10:50:12.884Z,20.62
2018-07-21T10:52:43.958Z,20.56
2018-07-21T10:55:16.136Z,20.20
2018-07-21T11:00:19.853Z,20.75
2018-07-21T11:03:00.528Z,19.89
2018-07-21T11:05:31.723Z,19.55
2018-07-21T11:08:06.869Z,20.72
2018-07-21T11:10:45.341Z,19.84
2018-07-21T11:13:24.719Z,19.25
2018-07-21T11:15:58.085Z,19.86
2018-07-21T11:18:31.377Z,19.57
2018-07-21T11:21:05.727Z,19.59
2018-07-21T11:23:42.178Z,19.33
2018-07-21T11:26:30.247Z,19.66
2018-07-21T11:29:03.964Z,19.51
2018-07-21T11:31:41.225Z,19.35
2018-07-21T11:34:12.193Z,18.50
2018-07-21T11:36:44.181Z,19.23
2018-07-21T11:39:16.438Z,19.24
2018-07-21T11:41:47.260Z,20.28
2018-07-21T11:44:18.225Z,19.83
2018-07-21T11:46:49.447Z,19.79
2018-07-21T11:49:23.776Z,19.44
2018-07-21T11:51:57.282Z,18.67
2018-07-21T11:54:27.537Z,18.16
2018-07-21T11:57:02.345Z,18.46
2018-07-21T11:59:33.553Z,18.74
2018-07-21T12:02:05.376Z,18.73
2018-07-21T12:04:40.680Z,19.87
2018-07-21T12:07:17.469Z,20.18
2018-07-21T12:09:56.682Z,20.27
2018-07-21T12:12:29.132Z,20.56
2018-07-21T12:14:59.982Z,20.54
2018-07-21T12:17:36.094Z,21.10
2018-07-21T12:20:09.516Z,21.38
2018-07-21T12:22:41.133Z,21.05
2018-07-21T12:25:13.923Z,20.60
2018-07-21T12:27:48.232Z,20.33
2018-07-21T12:30:21.336Z,19.96
2018-07-21T12:32:52.639Z,20.24
2018-07-21T12:35:33.660Z,20.47
2018-07-21T12:38:10.311Z,20.41
2018-07-21T12:40:41.753Z,19.47
2018-07-21T12:43:18.672Z,19.20
2018-07-21T12:45:51.591Z,19.68
2018-07-21T12:48:26.208Z,19.32
2018-07-21T12:51:04.849Z,19.18
2018-07-21T12:53:46.171Z,19.19
2018-07-21T12:56:20.241Z,18.47
2018-07-21T12:58:53.429Z,18.55
2018-07-21T13:01:25.833Z,18.48
2018-07-21T13:04:01.357Z,19.58
2018-07-21T13:06:34.256Z,20.18
2018-07-21T13:09:20.767Z,19.84
2018-07-21T13:11:52.747Z,19.88
2018-07-21T13:14:37.501Z,19.81
2018-07-21T13:17:13.631Z,20.51
2018-07-21T13:19:47.447Z,19.24
2018-07-21T13:22:20.040Z,19.34
2018-07-21T13:24:50.669Z,19.64
2018-07-21T13:27:31.194Z,19.92
2018-07-21T13:30:05.389Z,19.70
2018-07-21T13:32:37.869Z,20.58
2018-07-21T13:35:09.438Z,19.72
2018-07-21T13:37:40.478Z,19.98
2018-07-21T13:40:11.335Z,19.15
2018-07-21T13:42:45.811Z,18.49
2018-07-21T13:48:15.525Z,19.44
2018-07-21T13:50:55.110Z,19.81
2018-07-21T13:53:28.432Z,19.88
2018-07-21T13:55:59.709Z,19.93
2018-07-21T13:58:30.842Z,20.48
2018-07-21T14:01:02.506Z,21.16
2018-07-21T14:03:47.934Z,21.00
2018-07-21T14:06:22.255Z,21.05
2018-07-21T14:08:53.247Z,19.62
2018-07-21T14:11:30.342Z,19.43
2018-07-21T14:14:01.851Z,19.65
2018-07-21T14:16:34.348Z,19.02
2018-07-21T14:19:05.269Z,19.07
2018-07-21T14:21:38.482Z,19.49
2018-07-21T14:24:10.755Z,19.20
2018-07-21T14:26:47.017Z,19.78
2018-07-21T14:29:19.779Z,19.68
2018-07-21T14:31:50.422Z,19.21
2018-07-21T14:34:20.851Z,18.72
2018-07-21T14:36:53.245Z,19.24
2018-07-21T14:39:24.336Z,19.16
2018-07-21T14:42:14.456Z,18.83
2018-07-21T14:44:47.798Z,18.65
2018-07-21T14:47:22.268Z,18.81
2018-07-21T14:49:54.649Z,19.50
2018-07-21T14:52:30.873Z,19.77
2018-07-21T14:55:02.633Z,20.15
2018-07-21T14:57:37.928Z,19.78
2018-07-21T15:00:13.701Z,19.34
2018-07-21T15:02:46.468Z,20.02
2018-07-21T15:05:18.629Z,19.11
2018-07-21T15:07:48.834Z,19.34
2018-07-21T15:10:25.861Z,19.42
2018-07-21T15:13:00.346Z,19.44
2018-07-21T15:15:35.554Z,19.70
2018-07-21T15:18:07.638Z,18.85
2018-07-21T15:20:42.170Z,19.11
2018-07-21T15:23:13.279Z,19.46
2018-07-21T15:25:44.632Z,19.14
2018-07-21T15:31:00.185Z,20.11
2018-07-21T15:33:33.737Z,20.71
2018-07-21T15:36:04.521Z,20.63
2018-07-21T15:38:36.271Z,21.24
2018-07-21T15:41:08.818Z,21.43
2018-07-21T15:43:40.167Z,21.50
2018-07-21T15:46:11.915Z,21.51
2018-07-21T15:48:44.739Z,21.44
2018-07-21T15:51:23.122Z,21.30
2018-07-21T15:53:58.108Z,24.22
2018-07-21T15:56:28.286Z,25.61
2018-07-21T15:59:02.052Z,26.70
2018-07-21T16:01:34.001Z,28.59
2018-07-21T16:04:05.370Z,27.64
2018-07-21T16:06:39.723Z,28.46
2018-07-21T16:09:11.544Z,28.02
2018-07-21T16:11:41.910Z,29.19
2018-07-21T16:14:12.461Z,29.59
2018-07-21T16:16:42.991Z,30.01
2018-07-21T16:19:15.327Z,30.21
2018-07-21T16:21:46.160Z,30.50
2018-07-21T16:24:18.129Z,30.54
2018-07-21T16:29:16.516Z,31.44
2018-07-21T16:31:47.577Z,30.94
2018-07-21T16:34:18.625Z,31.91
2018-07-21T16:36:50.627Z,32.02
2018-07-21T16:39:21.237Z,31.91
2018-07-21T16:41:51.923Z,31.74
2018-07-21T16:44:22.955Z,31.23
2018-07-21T16:46:53.368Z,31.96
2018-07-21T16:49:25.289Z,32.41
2018-07-21T16:51:57.125Z,32.40
2018-07-21T16:54:27.675Z,33.23
2018-07-21T16:57:00.348Z,32.87
2018-07-21T16:59:31.152Z,33.08
2018-07-21T17:02:05.836Z,33.03
2018-07-21T17:04:36.454Z,32.93
2018-07-21T17:07:07.418Z,32.77
2018-07-21T17:09:46.427Z,32.49
2018-07-21T17:12:24.081Z,32.52
2018-07-21T17:14:55.384Z,32.37
2018-07-21T17:17:28.048Z,32.25
2018-07-21T17:20:00.670Z,31.55
2018-07-21T17:22:33.102Z,31.92
2018-07-21T17:25:05.651Z,32.05
2018-07-21T17:27:38.178Z,31.17
2018-07-21T17:30:14.657Z,31.37
2018-07-21T17:32:45.963Z,31.32
2018-07-21T17:35:17.554Z,32.03
2018-07-21T17:37:49.213Z,31.97
2018-07-21T17:40:23.144Z,32.86
2018-07-21T17:42:56.916Z,32.71
2018-07-21T17:45:27.934Z,33.11
2018-07-21T17:48:00.740Z,34.15
2018-07-21T17:50:34.287Z,33.71
2018-07-21T17:53:05.359Z,33.85
2018-07-21T17:55:35.760Z,33.71
2018-07-21T17:58:06.531Z,34.20
2018-07-21T18:00:39.523Z,33.85
2018-07-21T18:03:11.153Z,31.98
2018-07-21T18:05:44.351Z,32.72
2018-07-21T18:08:14.715Z,32.11
2018-07-21T18:10:44.903Z,33.27
2018-07-21T18:13:20.161Z,33.52
2018-07-21T18:16:00.754Z,36.30
2018-07-21T18:18:36.930Z,38.99
2018-07-21T18:21:08.732Z,36.74
2018-07-21T18:23:40.544Z,39.74
2018-07-21T18:26:12.551Z,42.01
2018-07-21T18:28:43.589Z,46.01
2018-07-21T18:31:15.417Z,50.52
2018-07-21T18:33:46.695Z,54.17
2018-07-21T18:36:18.214Z,54.93
2018-07-21T18:38:50.293Z,56.76
2018-07-21T18:41:24.461Z,57.24
2018-07-21T18:44:01.643Z,57.10
2018-07-21T18:46:33.827Z,55.67
2018-07-21T18:49:04.612Z,55.57
2018-07-21T18:51:37.290Z,60.48
2018-07-21T18:54:09.914Z,62.54
2018-07-21T18:56:41.430Z,63.25
2018-07-21T18:59:15.370Z,64.36
2018-07-21T19:01:57.907Z,63.19
2018-07-21T19:04:31.296Z,63.84
2018-07-21T19:07:03.614Z,62.96
2018-07-21T19:09:36.697Z,62.03
2018-07-21T19:12:15.773Z,60.82
2018-07-21T19:14:55.619Z,58.99
2018-07-21T19:17:29.829Z,57.62
2018-07-21T19:20:09.397Z,57.56
2018-07-21T19:22:41.243Z,56.38
2018-07-21T19:25:21.858Z,55.63
2018-07-21T19:27:55.588Z,55.42
2018-07-21T19:30:28.400Z,54.14
2018-07-21T19:33:03.637Z,53.63
2018-07-21T19:35:34.677Z,53.99
2018-07-21T19:38:07.330Z,54.51
2018-07-21T19:40:41.835Z,54.05
2018-07-21T19:43:12.876Z,52.79
2018-07-21T19:45:44.717Z,53.62
2018-07-21T19:48:18.090Z,53.03
2018-07-21T19:50:53.475Z,53.33
2018-07-21T19:53:24.903Z,53.76
2018-07-21T19:55:57.553Z,52.72
2018-07-21T20:01:09.181Z,53.01
2018-07-21T20:03:41.835Z,53.30
2018-07-21T20:06:16.650Z,54.11
2018-07-21T20:08:50.110Z,53.91
2018-07-21T20:11:22.454Z,54.94
2018-07-21T20:13:59.379Z,56.96
2018-07-21T20:16:31.564Z,55.44
2018-07-21T20:19:08.524Z,55.48
2018-07-21T20:21:41.839Z,54.86
2018-07-21T20:26:56.356Z,55.09
2018-07-21T20:29:29.782Z,54.59
2018-07-21T20:32:03.981Z,54.62
2018-07-21T20:34:36.235Z,53.41
2018-07-21T20:37:14.476Z,53.77
2018-07-21T20:39:46.076Z,53.23
2018-07-21T20:42:18.593Z,52.54
2018-07-21T20:45:07.929Z,52.04
2018-07-21T20:47:40.928Z,51.79
2018-07-21T20:50:21.038Z,53.05
2018-07-21T20:52:53.248Z,51.61
2018-07-21T20:55:27.543Z,51.56
2018-07-21T20:58:02.460Z,51.53
2018-07-21T21:00:37.581Z,50.42
2018-07-21T21:03:09.255Z,51.25
2018-07-21T21:05:41.580Z,50.91
2018-07-21T21:08:13.279Z,51.12
2018-07-21T21:10:49.214Z,49.93
2018-07-21T21:13:22.117Z,49.76
2018-07-21T21:15:54.276Z,49.41
2018-07-21T21:18:26.819Z,49.48
2018-07-21T21:21:02.195Z,49.18
2018-07-21T21:23:33.247Z,48.77
2018-07-21T21:26:06.227Z,48.71
2018-07-21T21:28:40.946Z,49.17
2018-07-21T21:31:14.260Z,49.43
2018-07-21T21:33:46.465Z,48.68
2018-07-21T21:36:18.272Z,48.57
2018-07-21T21:38:50.724Z,48.91
2018-07-21T21:41:21.947Z,48.56
2018-07-21T21:43:52.392Z,48.33
2018-07-21T21:46:28.776Z,48.50
2018-07-21T21:49:01.409Z,48.44
2018-07-21T21:51:33.706Z,48.41
2018-07-21T21:54:07.683Z,48.33
2018-07-21T21:56:41.507Z,48.49
2018-07-21T21:59:12.643Z,48.64
2018-07-21T22:01:47.725Z,48.10
2018-07-21T22:04:19.402Z,48.80
2018-07-21T22:06:51.380Z,48.49
2018-07-21T22:09:24.930Z,47.71
2018-07-21T22:12:02.525Z,47.83
2018-07-21T22:14:33.520Z,48.44
2018-07-21T22:17:07.203Z,48.16
2018-07-21T22:19:45.649Z,48.75
2018-07-21T22:22:28.460Z,48.71
2018-07-21T22:25:01.695Z,48.81
2018-07-21T22:27:47.043Z,48.15
2018-07-21T22:30:21.934Z,49.04
2018-07-21T22:32:53.036Z,48.94
2018-07-21T22:35:23.608Z,48.77
2018-07-21T22:37:55.190Z,48.83
2018-07-21T22:43:45.086Z,49.56
2018-07-21T22:46:15.523Z,49.72
2018-07-21T22:55:23.660Z,49.69
2018-07-21T22:58:03.624Z,49.56
2018-07-21T23:00:34.622Z,50.33
2018-07-21T23:03:07.334Z,49.98
2018-07-21T23:05:37.816Z,50.59
2018-07-21T23:08:13.701Z,50.30
2018-07-21T23:10:44.963Z,49.69
2018-07-21T23:13:15.127Z,49.72
2018-07-21T23:15:46.497Z,50.10
2018-07-21T23:18:19.078Z,51.03
2018-07-21T23:20:51.475Z,49.87
2018-07-21T23:23:22.919Z,50.34
2018-07-21T23:26:03.217Z,50.75
2018-07-21T23:28:47.835Z,50.36
2018-07-21T23:31:18.515Z,50.43
2018-07-21T23:33:50.335Z,50.32
2018-07-21T23:36:21.202Z,51.58
2018-07-21T23:38:55.442Z,52.61
2018-07-21T23:41:25.727Z,51.57
2018-07-21T23:43:56.599Z,51.83
2018-07-21T23:46:27.417Z,51.22
2018-07-21T23:48:59.720Z,50.69
2018-07-21T23:51:31.805Z,50.77
2018-07-21T23:54:02.107Z,51.65
2018-07-21T23:56:35.088Z,51.45
2018-07-21T23:59:06.070Z,51.88
